createdAt,value
2023-01-09T00:00:27.462Z,0.82
2023-01-09T00:05:28.987Z,0.60
2023-01-09T00:10:30.315Z,0.63
2023-01-09T00:15:31.647Z,0.63
2023-01-09T00:20:33.019Z,0.85
2023-01-09T00:25:34.458Z,0.63
2023-01-09T00:30:35.895Z,0.95
2023-01-09T00:35:37.312Z,0.90
2023-01-09T00:40:38.630Z,0.90
2023-01-09T00:45:40.321Z,1.23
2023-01-09T00:50:42.841Z,1.63
2023-01-09T00:55:44.525Z,2.08
2023-01-09T01:00:45.929Z,2.17
2023-01-09T01:06:05.993Z,2.33
2023-01-09T01:11:10.112Z,2.20
2023-01-09T01:16:13.240Z,2.83
2023-01-09T01:21:15.019Z,2.53
2023-01-09T01:26:17.183Z,2.55
2023-01-09T01:31:19.600Z,2.72
2023-01-09T01:36:20.920Z,3.25
2023-01-09T01:41:31.165Z,3.50
2023-01-09T01:46:34.178Z,4.00
2023-01-09T01:51:41.296Z,3.78
2023-01-09T01:56:46.622Z,4.25
2023-01-09T02:01:53.503Z,3.28
2023-01-09T02:06:56.855Z,3.58
2023-01-09T02:12:00.277Z,2.97
2023-01-09T02:17:33.506Z,2.88
2023-01-09T02:22:59.507Z,2.90
2023-01-09T02:28:33.388Z,2.40
2023-01-09T02:34:03.167Z,2.55
2023-01-09T02:39:25.905Z,2.53
2023-01-09T02:44:30.583Z,2.08
2023-01-09T02:49:34.725Z,1.90
2023-01-09T02:55:02.857Z,1.50
2023-01-09T03:05:19.027Z,1.60
2023-01-09T03:10:27.550Z,4.22
2023-01-09T03:15:34.453Z,2.35
2023-01-09T03:20:38.451Z,2.03
2023-01-09T03:25:39.776Z,2.55
2023-01-09T03:30:41.096Z,1.92
2023-01-09T03:35:42.431Z,2.40
2023-01-09T03:40:43.827Z,2.10
2023-01-09T03:45:45.297Z,1.75
2023-01-09T03:50:52.671Z,1.13
2023-01-09T03:55:57.259Z,0.95
2023-01-09T04:01:00.417Z,0.88
2023-01-09T04:06:01.830Z,0.63
2023-01-09T04:11:03.224Z,0.20
2023-01-09T04:16:04.976Z,0.38
2023-01-09T04:21:06.425Z,0.20
2023-01-09T04:26:07.938Z,0.20
2023-01-09T04:31:09.357Z,0.20
2023-01-09T04:36:10.783Z,0.22
2023-01-09T04:41:32.100Z,0.10
2023-01-09T04:46:33.415Z,0.10
2023-01-09T04:51:34.789Z,0.10
2023-01-09T04:56:37.390Z,0.00
2023-01-09T05:01:38.855Z,0.00
2023-01-09T05:06:40.265Z,0.10
2023-01-09T05:11:41.646Z,0.10
2023-01-09T05:16:42.977Z,0.10
2023-01-09T05:21:44.294Z,0.10
2023-01-09T05:26:45.628Z,0.00
2023-01-09T05:31:47.069Z,0.00
2023-01-09T05:36:48.708Z,0.10
2023-01-09T05:41:50.332Z,0.10
2023-01-09T05:46:51.729Z,0.00
2023-01-09T05:51:53.040Z,0.10
2023-01-09T05:56:54.479Z,0.10
2023-01-09T06:01:55.991Z,0.10
2023-01-09T06:06:57.497Z,0.20
2023-01-09T06:11:58.813Z,0.15
2023-01-09T06:17:00.192Z,0.20
2023-01-09T06:22:01.567Z,0.20
2023-01-09T06:27:03.090Z,0.10
2023-01-09T06:32:05.000Z,0.20
2023-01-09T06:37:06.344Z,0.30
2023-01-09T06:42:07.696Z,0.20
2023-01-09T06:47:09.023Z,0.10
2023-01-09T06:52:10.386Z,0.38
2023-01-09T06:57:11.726Z,0.20
2023-01-09T07:02:19.039Z,0.20
2023-01-09T07:07:22.232Z,0.65
2023-01-09T07:12:23.563Z,0.20
2023-01-09T07:17:25.463Z,0.85
2023-01-09T07:22:26.793Z,0.30
2023-01-09T07:27:28.195Z,0.75
2023-01-09T07:32:29.571Z,0.30
2023-01-09T07:37:30.885Z,0.30
2023-01-09T07:42:32.510Z,0.30
2023-01-09T07:47:33.862Z,0.35
2023-01-09T07:52:35.246Z,0.70
2023-01-09T07:57:36.580Z,0.40
2023-01-09T08:02:37.966Z,0.20
2023-01-09T08:07:39.332Z,0.30
2023-01-09T08:12:43.902Z,0.40
2023-01-09T08:17:46.393Z,0.20
2023-01-09T08:22:51.980Z,0.22
2023-01-09T08:27:53.367Z,0.28
2023-01-09T08:32:54.801Z,0.20
2023-01-09T08:37:56.137Z,0.10
2023-01-09T08:43:16.422Z,0.20
2023-01-09T08:48:17.817Z,0.40
2023-01-09T08:53:19.158Z,0.20
2023-01-09T08:58:20.551Z,0.20
2023-01-09T09:03:21.913Z,0.90
2023-01-09T09:08:23.340Z,0.30
2023-01-09T09:13:24.681Z,0.20
2023-01-09T09:18:26.041Z,0.40
2023-01-09T09:23:27.419Z,0.30
2023-01-09T09:28:28.755Z,0.20
2023-01-09T09:33:30.327Z,0.20
2023-01-09T09:38:31.654Z,0.10
2023-01-09T09:44:16.490Z,0.10
2023-01-09T09:49:28.373Z,0.73
2023-01-09T09:54:38.832Z,0.20
2023-01-09T09:59:42.292Z,0.10
2023-01-09T10:04:50.474Z,0.10
2023-01-09T10:09:55.517Z,0.20
2023-01-09T10:14:59.120Z,0.10
2023-01-09T10:20:24.979Z,0.32
2023-01-09T10:25:31.733Z,0.15
2023-01-09T10:30:41.725Z,0.23
2023-01-09T10:36:14.433Z,0.30
2023-01-09T10:41:18.481Z,0.20
2023-01-09T10:46:38.681Z,0.13
2023-01-09T10:51:47.911Z,0.20
2023-01-09T10:57:14.115Z,0.15
2023-01-09T11:02:27.388Z,0.82
2023-01-09T11:07:38.797Z,0.20
2023-01-09T11:12:40.479Z,0.10
2023-01-09T11:17:42.930Z,0.20
2023-01-09T11:22:49.178Z,0.20
2023-01-09T11:28:02.347Z,0.20
2023-01-09T11:33:15.711Z,0.20
2023-01-09T11:38:18.198Z,0.30
2023-01-09T11:43:30.349Z,0.20
2023-01-09T11:48:56.889Z,0.20
2023-01-09T11:54:07.655Z,0.35
2023-01-09T11:59:18.141Z,0.30
2023-01-09T12:04:37.939Z,0.30
2023-01-09T12:10:19.723Z,0.30
2023-01-09T12:15:45.277Z,0.10
2023-01-09T12:21:15.618Z,0.30
2023-01-09T12:26:23.757Z,0.20
2023-01-09T12:31:46.919Z,0.20
2023-01-09T12:37:41.672Z,0.30
2023-01-09T12:42:45.658Z,0.35
2023-01-09T12:47:50.017Z,0.28
2023-01-09T12:53:17.936Z,0.35
2023-01-09T12:58:34.799Z,0.98
2023-01-09T13:04:16.972Z,0.30
2023-01-09T13:09:25.907Z,0.30
2023-01-09T13:15:07.538Z,0.20
2023-01-09T13:20:39.602Z,0.35
2023-01-09T13:25:49.130Z,0.30
2023-01-09T13:31:13.498Z,0.20
2023-01-09T13:36:26.217Z,0.13
2023-01-09T13:41:47.753Z,0.40
2023-01-09T13:46:52.412Z,0.10
2023-01-09T13:52:00.908Z,0.10
2023-01-09T13:57:20.557Z,0.03
2023-01-09T14:02:34.039Z,0.10
2023-01-09T14:07:43.317Z,0.10
2023-01-09T14:12:44.714Z,0.10
2023-01-09T14:17:46.109Z,0.00
2023-01-09T14:22:56.476Z,0.05
2023-01-09T14:28:28.633Z,0.40
2023-01-09T14:33:32.841Z,0.10
2023-01-09T14:38:37.534Z,0.10
2023-01-09T14:43:51.727Z,0.00
2023-01-09T14:49:03.647Z,0.17
2023-01-09T14:54:19.288Z,0.10
2023-01-09T14:59:20.578Z,0.20
2023-01-09T15:04:31.801Z,0.10
2023-01-09T15:09:45.945Z,0.20
2023-01-09T15:14:52.063Z,0.15
2023-01-09T15:19:54.858Z,0.13
2023-01-09T15:24:57.156Z,0.20
2023-01-09T15:30:15.443Z,0.17
2023-01-09T15:35:17.048Z,0.57
2023-01-09T15:40:22.831Z,0.30
2023-01-09T15:45:35.248Z,0.93
2023-01-09T15:50:36.672Z,0.50
2023-01-09T15:55:38.445Z,0.30
2023-01-09T16:00:42.131Z,0.40
2023-01-09T16:06:05.389Z,0.30
2023-01-09T16:11:10.883Z,0.30
2023-01-09T16:16:13.722Z,0.57
2023-01-09T16:21:24.411Z,0.38
2023-01-09T16:26:28.467Z,0.20
2023-01-09T16:31:30.802Z,0.30
2023-01-09T16:36:35.108Z,0.40
2023-01-09T16:41:54.947Z,0.30
2023-01-09T16:46:56.568Z,0.30
2023-01-09T16:52:02.806Z,0.30
2023-01-09T16:57:04.373Z,0.20
2023-01-09T17:02:17.153Z,0.20
2023-01-09T17:07:19.139Z,0.30
2023-01-09T17:12:24.738Z,0.20
2023-01-09T17:17:26.069Z,0.20
2023-01-09T17:22:27.435Z,0.30
2023-01-09T17:27:52.747Z,0.50
2023-01-09T17:32:54.189Z,0.70
2023-01-09T17:37:55.578Z,0.38
2023-01-09T17:42:56.931Z,0.60
2023-01-09T17:47:58.266Z,0.35
2023-01-09T17:52:59.631Z,0.30
2023-01-09T17:58:00.988Z,0.35
2023-01-09T18:03:04.227Z,0.52
2023-01-09T18:08:08.998Z,0.40
2023-01-09T18:13:11.059Z,0.32
2023-01-09T18:18:12.959Z,0.40
2023-01-09T18:23:14.487Z,0.50
2023-01-09T18:28:15.938Z,0.20
2023-01-09T18:33:17.824Z,0.20
2023-01-09T18:38:19.129Z,0.20
2023-01-09T18:43:21.436Z,0.20
2023-01-09T18:48:23.334Z,0.73
2023-01-09T18:53:24.649Z,0.50
2023-01-09T18:58:25.951Z,0.17
2023-01-09T19:03:28.526Z,0.30
2023-01-09T19:08:31.133Z,0.40
2023-01-09T19:13:35.239Z,0.60
2023-01-09T19:18:39.618Z,0.45
2023-01-09T19:23:42.450Z,0.50
2023-01-09T19:28:46.412Z,0.40
2023-01-09T19:33:47.863Z,0.45
2023-01-09T19:38:49.404Z,0.20
2023-01-09T19:43:50.900Z,0.70
2023-01-09T19:48:53.161Z,0.43
2023-01-09T19:59:02.481Z,0.30
2023-01-09T20:04:07.710Z,0.20
2023-01-09T20:09:12.047Z,0.60
2023-01-09T20:14:15.818Z,0.20
2023-01-09T20:19:17.195Z,0.25
2023-01-09T20:24:18.551Z,0.30
2023-01-09T20:29:20.640Z,0.60
2023-01-09T20:34:22.093Z,0.30
2023-01-09T20:39:23.431Z,0.30
2023-01-09T20:44:24.893Z,0.40
2023-01-09T20:49:26.286Z,0.30
2023-01-09T20:54:27.604Z,0.43
2023-01-09T20:59:29.144Z,0.40
2023-01-09T21:04:31.115Z,0.60
2023-01-09T21:09:32.815Z,0.70
2023-01-09T21:14:35.800Z,0.88
2023-01-09T21:19:37.141Z,0.40
2023-01-09T21:24:38.624Z,0.40
2023-01-09T21:29:40.013Z,0.40
2023-01-09T21:34:41.723Z,0.55
2023-01-09T21:39:43.235Z,0.40
2023-01-09T21:45:03.217Z,0.80
2023-01-09T21:50:05.149Z,0.50
2023-01-09T21:55:07.001Z,1.00
2023-01-09T22:00:08.856Z,0.40
2023-01-09T22:05:10.188Z,0.55
2023-01-09T22:10:12.249Z,0.40
2023-01-09T22:15:13.554Z,0.50
2023-01-09T22:20:14.860Z,0.40
2023-01-09T22:25:16.419Z,0.60
2023-01-09T22:30:17.903Z,0.70
2023-01-09T22:35:19.203Z,0.75
2023-01-09T22:40:20.518Z,0.45
2023-01-09T22:45:21.886Z,0.47
2023-01-09T22:50:23.704Z,0.50
2023-01-09T22:55:25.023Z,0.30
2023-01-09T23:00:28.453Z,0.50
2023-01-09T23:05:29.765Z,0.50
2023-01-09T23:10:31.112Z,0.50
2023-01-09T23:15:32.559Z,0.40
2023-01-09T23:20:33.992Z,0.45
2023-01-09T23:25:35.369Z,0.55
2023-01-09T23:30:36.728Z,0.40
2023-01-09T23:35:38.134Z,0.47
2023-01-09T23:40:43.616Z,0.98
2023-01-09T23:45:46.086Z,0.40
2023-01-09T23:50:49.959Z,0.40
2023-01-09T23:55:55.147Z,0.30
